Austin Golding — WDC8113 — position and weather

sailwx.info

Track history (hours):
 
Tides and Currents Weather Stations Pressure Air Temp Water Temp Dewpoint Dewpoint Depression Visibility Wind Speed Wind Dir Waves Ship Positions

Austin Golding

Owner: Golding Barge Line, Inc., Vicksburg, MS. More information available from US FCC via Universal Licensing System and Coast Guard Vessel Documentation Center.

Last reported at 2017-Nov-18 09:56 UTC. Time now 2017-Nov-20 00:30 UTC.
Position N 30°26' W 086°18'.

Length 211 m; draft 2.9 m.

Type: . MMSI: 367081860.

Date/timePositionNaut miles runAvg speedWind from/ knotsBaromVisibWave heightAir tempDewpointWater temp
2017-Nov-18 09:56N 30°26' W 086°18'3 7.6
2017-Nov-18 09:30N 30°26' W 086°22'4 7.7
2017-Nov-18 09:00N 30°26' W 086°26'4 7.5
2017-Nov-18 08:30N 30°26' W 086°31'12 5.8
2017-Nov-18 06:28N 30°24' W 086°44'3 6.0
2017-Nov-18 06:00N 30°24' W 086°48'3 5.9
2017-Nov-18 05:30N 30°24' W 086°51'  
2017-Nov-14 11:39N 30°24' W 086°53'1 6.8
2017-Nov-14 11:27N 30°24' W 086°51'3 6.6
2017-Nov-14 11:00N 30°24' W 086°48'13 5.8
2017-Nov-14 08:48N 30°24' W 086°33'0 1.0
2017-Nov-14 08:21N 30°25' W 086°33'0 0.5
2017-Nov-14 07:59N 30°25' W 086°33'0 0.3
2017-Nov-14 07:17N 30°25' W 086°32'0 1.7
2017-Nov-14 07:00N 30°25' W 086°32'1 2.8
2017-Nov-14 06:30N 30°26' W 086°30'3 6.6
2017-Nov-14 06:00N 30°26' W 086°27'4 7.1
2017-Nov-14 05:30N 30°26' W 086°23'4 7.3
2017-Nov-14 05:00N 30°26' W 086°18'  
2017-Nov-11 01:01N 30°26' W 086°17'0 5.9
2017-Nov-11 00:57N 30°26' W 086°18'3 5.8
2017-Nov-11 00:30N 30°26' W 086°21'3 5.7
2017-Nov-11 00:00N 30°26' W 086°24'3 5.8
2017-Nov-10 23:30N 30°26' W 086°27'3 5.7
2017-Nov-10 23:00N 30°26' W 086°31'12 4.5
2017-Nov-10 20:16N 30°24' W 086°45'1 4.3
2017-Nov-10 19:59N 30°24' W 086°46'1 1.3
2017-Nov-10 19:30N 30°24' W 086°47'0 0.1
2017-Nov-10 19:00N 30°24' W 086°47'0 1.0
2017-Nov-10 18:30N 30°24' W 086°46'1 1.3
2017-Nov-10 18:00N 30°24' W 086°47'0 0.0
2017-Nov-10 17:30N 30°24' W 086°47'0 0.1
2017-Nov-10 17:00N 30°24' W 086°47'0 0.1
2017-Nov-10 16:30N 30°24' W 086°47'2 3.3
2017-Nov-10 16:00N 30°24' W 086°49'3 5.1
2017-Nov-10 15:28N 30°24' W 086°52'  
Track history (hours):
 
Tides and Currents Weather Stations Pressure Air Temp Water Temp Dewpoint Dewpoint Depression Visibility Wind Speed Wind Dir Waves Ship Positions

Austin Golding

Owner: Golding Barge Line, Inc., Vicksburg, MS. More information available from US FCC via Universal Licensing System and Coast Guard Vessel Documentation Center.

Last reported at 2017-Nov-18 09:56 UTC. Time now 2017-Nov-20 00:30 UTC.
Position N 30°26' W 086°18'.

Length 211 m; draft 2.9 m.

Type: . MMSI: 367081860.

Date/timePositionNaut miles runAvg speedWind from/ knotsBaromVisibWave heightAir tempDewpointWater temp
2017-Nov-18 09:56N 30°26' W 086°18'3 7.6
2017-Nov-18 09:30N 30°26' W 086°22'4 7.7
2017-Nov-18 09:00N 30°26' W 086°26'4 7.5
2017-Nov-18 08:30N 30°26' W 086°31'12 5.8
2017-Nov-18 06:28N 30°24' W 086°44'3 6.0
2017-Nov-18 06:00N 30°24' W 086°48'3 5.9
2017-Nov-18 05:30N 30°24' W 086°51'  
2017-Nov-14 11:39N 30°24' W 086°53'1 6.8
2017-Nov-14 11:27N 30°24' W 086°51'3 6.6
2017-Nov-14 11:00N 30°24' W 086°48'13 5.8
2017-Nov-14 08:48N 30°24' W 086°33'0 1.0
2017-Nov-14 08:21N 30°25' W 086°33'0 0.5
2017-Nov-14 07:59N 30°25' W 086°33'0 0.3
2017-Nov-14 07:17N 30°25' W 086°32'0 1.7
2017-Nov-14 07:00N 30°25' W 086°32'1 2.8
2017-Nov-14 06:30N 30°26' W 086°30'3 6.6
2017-Nov-14 06:00N 30°26' W 086°27'4 7.1
2017-Nov-14 05:30N 30°26' W 086°23'4 7.3
2017-Nov-14 05:00N 30°26' W 086°18'  
2017-Nov-11 01:01N 30°26' W 086°17'0 5.9
2017-Nov-11 00:57N 30°26' W 086°18'3 5.8
2017-Nov-11 00:30N 30°26' W 086°21'3 5.7
2017-Nov-11 00:00N 30°26' W 086°24'3 5.8
2017-Nov-10 23:30N 30°26' W 086°27'3 5.7
2017-Nov-10 23:00N 30°26' W 086°31'12 4.5
2017-Nov-10 20:16N 30°24' W 086°45'1 4.3
2017-Nov-10 19:59N 30°24' W 086°46'1 1.3
2017-Nov-10 19:30N 30°24' W 086°47'0 0.1
2017-Nov-10 19:00N 30°24' W 086°47'0 1.0
2017-Nov-10 18:30N 30°24' W 086°46'1 1.3
2017-Nov-10 18:00N 30°24' W 086°47'0 0.0
2017-Nov-10 17:30N 30°24' W 086°47'0 0.1
2017-Nov-10 17:00N 30°24' W 086°47'0 0.1
2017-Nov-10 16:30N 30°24' W 086°47'2 3.3
2017-Nov-10 16:00N 30°24' W 086°49'3 5.1
2017-Nov-10 15:28N 30°24' W 086°52'  

Dump ship's entire track history